sensor_id;sensor_type;location;lat;lon;timestamp;P1;durP1;ratioP1;P2;durP2;ratioP2
13799;SDS011;6971;50.028;9.258;2024-02-21T00:00:34;12.60;;;5.10;;
13799;SDS011;6971;50.028;9.258;2024-02-21T00:05:35;7.90;;;5.03;;
13799;SDS011;6971;50.028;9.258;2024-02-21T00:10:35;8.67;;;3.83;;
13799;SDS011;6971;50.028;9.258;2024-02-21T00:15:36;8.10;;;4.13;;
13799;SDS011;6971;50.028;9.258;2024-02-21T00:20:37;7.93;;;3.40;;
13799;SDS011;6971;50.028;9.258;2024-02-21T00:25:37;11.70;;;4.20;;
13799;SDS011;6971;50.028;9.258;2024-02-21T00:30:37;7.73;;;4.00;;
13799;SDS011;6971;50.028;9.258;2024-02-21T00:35:38;8.57;;;3.50;;
13799;SDS011;6971;50.028;9.258;2024-02-21T00:40:38;7.57;;;4.23;;
13799;SDS011;6971;50.028;9.258;2024-02-21T00:45:38;8.03;;;4.37;;
13799;SDS011;6971;50.028;9.258;2024-02-21T00:50:39;6.73;;;3.93;;
13799;SDS011;6971;50.028;9.258;2024-02-21T00:55:39;6.40;;;4.17;;
13799;SDS011;6971;50.028;9.258;2024-02-21T01:00:40;6.63;;;4.53;;
13799;SDS011;6971;50.028;9.258;2024-02-21T01:05:40;8.60;;;4.30;;
13799;SDS011;6971;50.028;9.258;2024-02-21T01:10:41;7.67;;;3.97;;
13799;SDS011;6971;50.028;9.258;2024-02-21T01:15:41;8.90;;;4.67;;
13799;SDS011;6971;50.028;9.258;2024-02-21T01:20:41;12.67;;;4.40;;
13799;SDS011;6971;50.028;9.258;2024-02-21T01:25:42;8.97;;;4.03;;
13799;SDS011;6971;50.028;9.258;2024-02-21T01:30:42;8.03;;;3.23;;
13799;SDS011;6971;50.028;9.258;2024-02-21T01:35:42;8.27;;;4.10;;
13799;SDS011;6971;50.028;9.258;2024-02-21T01:40:43;12.47;;;3.83;;
13799;SDS011;6971;50.028;9.258;2024-02-21T01:45:45;7.07;;;4.23;;
13799;SDS011;6971;50.028;9.258;2024-02-21T01:50:49;11.87;;;4.33;;
13799;SDS011;6971;50.028;9.258;2024-02-21T01:55:50;7.20;;;4.53;;
13799;SDS011;6971;50.028;9.258;2024-02-21T02:00:51;8.30;;;4.00;;
13799;SDS011;6971;50.028;9.258;2024-02-21T02:05:51;9.17;;;4.60;;
13799;SDS011;6971;50.028;9.258;2024-02-21T02:10:52;8.93;;;4.70;;
13799;SDS011;6971;50.028;9.258;2024-02-21T02:15:52;13.47;;;4.60;;
13799;SDS011;6971;50.028;9.258;2024-02-21T02:20:53;9.57;;;4.57;;
13799;SDS011;6971;50.028;9.258;2024-02-21T02:25:53;5.97;;;3.83;;
13799;SDS011;6971;50.028;9.258;2024-02-21T02:30:53;8.13;;;4.60;;
13799;SDS011;6971;50.028;9.258;2024-02-21T02:35:54;11.73;;;4.63;;
13799;SDS011;6971;50.028;9.258;2024-02-21T02:40:54;11.10;;;4.03;;
13799;SDS011;6971;50.028;9.258;2024-02-21T02:45:55;7.23;;;4.20;;
13799;SDS011;6971;50.028;9.258;2024-02-21T02:50:55;9.90;;;4.00;;
13799;SDS011;6971;50.028;9.258;2024-02-21T02:55:56;14.07;;;5.67;;
13799;SDS011;6971;50.028;9.258;2024-02-21T03:00:56;9.70;;;4.27;;
13799;SDS011;6971;50.028;9.258;2024-02-21T03:05:56;9.20;;;4.57;;
13799;SDS011;6971;50.028;9.258;2024-02-21T03:10:57;10.73;;;5.60;;
13799;SDS011;6971;50.028;9.258;2024-02-21T03:15:57;9.17;;;4.63;;
13799;SDS011;6971;50.028;9.258;2024-02-21T03:20:57;9.57;;;4.57;;
13799;SDS011;6971;50.028;9.258;2024-02-21T03:25:58;7.40;;;4.80;;
13799;SDS011;6971;50.028;9.258;2024-02-21T03:30:58;11.13;;;4.63;;
13799;SDS011;6971;50.028;9.258;2024-02-21T03:35:58;10.50;;;4.27;;
13799;SDS011;6971;50.028;9.258;2024-02-21T03:40:59;8.67;;;5.03;;
13799;SDS011;6971;50.028;9.258;2024-02-21T03:45:59;14.33;;;4.93;;
13799;SDS011;6971;50.028;9.258;2024-02-21T03:51:01;18.90;;;5.73;;
13799;SDS011;6971;50.028;9.258;2024-02-21T03:56:01;10.07;;;4.73;;
13799;SDS011;6971;50.028;9.258;2024-02-21T04:01:03;10.77;;;5.03;;
13799;SDS011;6971;50.028;9.258;2024-02-21T04:06:04;13.03;;;5.40;;
13799;SDS011;6971;50.028;9.258;2024-02-21T04:11:04;11.97;;;5.67;;
13799;SDS011;6971;50.028;9.258;2024-02-21T04:16:05;8.73;;;4.93;;
13799;SDS011;6971;50.028;9.258;2024-02-21T04:21:06;12.83;;;5.43;;
13799;SDS011;6971;50.028;9.258;2024-02-21T04:26:06;9.60;;;4.60;;
13799;SDS011;6971;50.028;9.258;2024-02-21T04:31:06;14.40;;;6.03;;
13799;SDS011;6971;50.028;9.258;2024-02-21T04:36:07;10.90;;;5.93;;
13799;SDS011;6971;50.028;9.258;2024-02-21T04:41:07;26.50;;;5.57;;
13799;SDS011;6971;50.028;9.258;2024-02-21T04:46:08;9.03;;;4.53;;
13799;SDS011;6971;50.028;9.258;2024-02-21T04:51:08;15.53;;;5.17;;
13799;SDS011;6971;50.028;9.258;2024-02-21T04:56:09;10.47;;;5.27;;
13799;SDS011;6971;50.028;9.258;2024-02-21T05:01:10;9.07;;;4.97;;
13799;SDS011;6971;50.028;9.258;2024-02-21T05:06:10;9.77;;;4.73;;
13799;SDS011;6971;50.028;9.258;2024-02-21T05:11:10;8.33;;;4.60;;
13799;SDS011;6971;50.028;9.258;2024-02-21T05:16:11;17.03;;;5.57;;
13799;SDS011;6971;50.028;9.258;2024-02-21T05:21:11;15.10;;;5.37;;
13799;SDS011;6971;50.028;9.258;2024-02-21T05:26:19;10.70;;;5.77;;
13799;SDS011;6971;50.028;9.258;2024-02-21T05:31:20;14.33;;;5.47;;
13799;SDS011;6971;50.028;9.258;2024-02-21T05:36:21;15.73;;;7.40;;
13799;SDS011;6971;50.028;9.258;2024-02-21T05:41:21;13.40;;;6.13;;
13799;SDS011;6971;50.028;9.258;2024-02-21T05:46:22;12.97;;;5.57;;
13799;SDS011;6971;50.028;9.258;2024-02-21T05:51:22;14.50;;;5.40;;
13799;SDS011;6971;50.028;9.258;2024-02-21T05:56:22;10.37;;;5.57;;
13799;SDS011;6971;50.028;9.258;2024-02-21T06:01:23;15.63;;;6.63;;
13799;SDS011;6971;50.028;9.258;2024-02-21T06:06:23;12.63;;;5.50;;
13799;SDS011;6971;50.028;9.258;2024-02-21T06:11:24;10.53;;;6.10;;
13799;SDS011;6971;50.028;9.258;2024-02-21T06:16:24;9.93;;;5.67;;
13799;SDS011;6971;50.028;9.258;2024-02-21T06:21:28;13.50;;;5.77;;
13799;SDS011;6971;50.028;9.258;2024-02-21T06:26:29;12.50;;;6.03;;
13799;SDS011;6971;50.028;9.258;2024-02-21T06:31:29;13.90;;;6.33;;
13799;SDS011;6971;50.028;9.258;2024-02-21T06:36:31;15.40;;;6.00;;
13799;SDS011;6971;50.028;9.258;2024-02-21T06:41:31;16.33;;;6.80;;
13799;SDS011;6971;50.028;9.258;2024-02-21T06:46:34;13.23;;;6.57;;
13799;SDS011;6971;50.028;9.258;2024-02-21T06:51:34;13.17;;;6.97;;
13799;SDS011;6971;50.028;9.258;2024-02-21T06:56:35;13.60;;;7.03;;
13799;SDS011;6971;50.028;9.258;2024-02-21T07:01:36;12.57;;;7.80;;
13799;SDS011;6971;50.028;9.258;2024-02-21T07:06:37;12.70;;;7.77;;
13799;SDS011;6971;50.028;9.258;2024-02-21T07:11:37;13.00;;;6.83;;
13799;SDS011;6971;50.028;9.258;2024-02-21T07:16:38;21.50;;;6.70;;
13799;SDS011;6971;50.028;9.258;2024-02-21T07:21:38;11.63;;;5.57;;
13799;SDS011;6971;50.028;9.258;2024-02-21T07:26:41;15.60;;;6.23;;
13799;SDS011;6971;50.028;9.258;2024-02-21T07:31:43;13.47;;;6.70;;
13799;SDS011;6971;50.028;9.258;2024-02-21T07:36:44;11.70;;;6.50;;
13799;SDS011;6971;50.028;9.258;2024-02-21T07:41:45;13.17;;;6.60;;
13799;SDS011;6971;50.028;9.258;2024-02-21T07:46:46;16.37;;;7.03;;
13799;SDS011;6971;50.028;9.258;2024-02-21T07:51:47;14.70;;;7.73;;
13799;SDS011;6971;50.028;9.258;2024-02-21T07:56:48;12.03;;;8.07;;
13799;SDS011;6971;50.028;9.258;2024-02-21T08:01:48;18.03;;;9.93;;
13799;SDS011;6971;50.028;9.258;2024-02-21T08:06:53;14.97;;;8.83;;
13799;SDS011;6971;50.028;9.258;2024-02-21T08:11:55;12.73;;;6.90;;
13799;SDS011;6971;50.028;9.258;2024-02-21T08:16:56;16.30;;;6.30;;
13799;SDS011;6971;50.028;9.258;2024-02-21T08:21:56;11.50;;;5.77;;
13799;SDS011;6971;50.028;9.258;2024-02-21T08:26:56;12.33;;;5.43;;
13799;SDS011;6971;50.028;9.258;2024-02-21T08:31:57;14.40;;;6.57;;
13799;SDS011;6971;50.028;9.258;2024-02-21T08:36:57;11.10;;;5.67;;
13799;SDS011;6971;50.028;9.258;2024-02-21T08:41:58;13.10;;;4.43;;
13799;SDS011;6971;50.028;9.258;2024-02-21T08:46:58;7.87;;;4.60;;
13799;SDS011;6971;50.028;9.258;2024-02-21T08:51:58;7.40;;;4.17;;
13799;SDS011;6971;50.028;9.258;2024-02-21T08:56:59;7.93;;;3.40;;
13799;SDS011;6971;50.028;9.258;2024-02-21T09:01:59;7.17;;;3.87;;
13799;SDS011;6971;50.028;9.258;2024-02-21T09:06:59;9.27;;;3.70;;
13799;SDS011;6971;50.028;9.258;2024-02-21T09:12:00;5.80;;;3.73;;
13799;SDS011;6971;50.028;9.258;2024-02-21T09:17:05;5.37;;;3.13;;
13799;SDS011;6971;50.028;9.258;2024-02-21T09:22:06;7.33;;;3.63;;
13799;SDS011;6971;50.028;9.258;2024-02-21T09:27:06;9.50;;;3.23;;
13799;SDS011;6971;50.028;9.258;2024-02-21T09:32:06;12.97;;;4.10;;
13799;SDS011;6971;50.028;9.258;2024-02-21T09:37:07;11.33;;;3.97;;
13799;SDS011;6971;50.028;9.258;2024-02-21T09:42:08;7.33;;;3.03;;
13799;SDS011;6971;50.028;9.258;2024-02-21T09:47:17;9.63;;;4.93;;
13799;SDS011;6971;50.028;9.258;2024-02-21T09:52:22;5.47;;;3.30;;
13799;SDS011;6971;50.028;9.258;2024-02-21T09:57:23;5.37;;;2.67;;
13799;SDS011;6971;50.028;9.258;2024-02-21T10:02:24;7.47;;;2.83;;
13799;SDS011;6971;50.028;9.258;2024-02-21T10:07:25;5.53;;;3.47;;
13799;SDS011;6971;50.028;9.258;2024-02-21T10:12:25;6.37;;;2.93;;
13799;SDS011;6971;50.028;9.258;2024-02-21T10:17:26;5.13;;;3.20;;
13799;SDS011;6971;50.028;9.258;2024-02-21T10:22:26;6.97;;;2.57;;
13799;SDS011;6971;50.028;9.258;2024-02-21T10:27:28;4.60;;;2.37;;
13799;SDS011;6971;50.028;9.258;2024-02-21T10:32:28;7.40;;;3.03;;
13799;SDS011;6971;50.028;9.258;2024-02-21T10:37:30;4.07;;;2.70;;
13799;SDS011;6971;50.028;9.258;2024-02-21T10:42:31;3.60;;;2.53;;
13799;SDS011;6971;50.028;9.258;2024-02-21T10:47:36;4.17;;;2.40;;
13799;SDS011;6971;50.028;9.258;2024-02-21T10:52:48;5.90;;;2.47;;
13799;SDS011;6971;50.028;9.258;2024-02-21T10:57:55;8.93;;;2.47;;
13799;SDS011;6971;50.028;9.258;2024-02-21T11:02:58;7.17;;;2.40;;
13799;SDS011;6971;50.028;9.258;2024-02-21T11:07:59;3.57;;;1.83;;
13799;SDS011;6971;50.028;9.258;2024-02-21T11:13:09;7.47;;;2.20;;
13799;SDS011;6971;50.028;9.258;2024-02-21T11:18:10;5.10;;;1.80;;
13799;SDS011;6971;50.028;9.258;2024-02-21T11:23:10;3.13;;;2.10;;
13799;SDS011;6971;50.028;9.258;2024-02-21T11:28:11;6.37;;;2.80;;
13799;SDS011;6971;50.028;9.258;2024-02-21T11:33:12;4.70;;;2.20;;
13799;SDS011;6971;50.028;9.258;2024-02-21T11:38:13;3.43;;;2.07;;
13799;SDS011;6971;50.028;9.258;2024-02-21T11:43:16;4.00;;;2.83;;
13799;SDS011;6971;50.028;9.258;2024-02-21T11:48:17;4.97;;;2.73;;
13799;SDS011;6971;50.028;9.258;2024-02-21T11:53:17;3.57;;;2.33;;
13799;SDS011;6971;50.028;9.258;2024-02-21T11:58:19;6.10;;;2.63;;
13799;SDS011;6971;50.028;9.258;2024-02-21T12:03:19;6.30;;;2.60;;
13799;SDS011;6971;50.028;9.258;2024-02-21T12:08:20;2.77;;;2.10;;
13799;SDS011;6971;50.028;9.258;2024-02-21T12:13:22;4.80;;;2.60;;
13799;SDS011;6971;50.028;9.258;2024-02-21T12:18:23;4.83;;;2.83;;
13799;SDS011;6971;50.028;9.258;2024-02-21T12:23:26;4.90;;;2.00;;
13799;SDS011;6971;50.028;9.258;2024-02-21T12:28:27;3.57;;;2.63;;
13799;SDS011;6971;50.028;9.258;2024-02-21T12:33:27;4.77;;;2.20;;
13799;SDS011;6971;50.028;9.258;2024-02-21T12:38:27;5.30;;;2.00;;
13799;SDS011;6971;50.028;9.258;2024-02-21T12:43:28;4.63;;;2.30;;
13799;SDS011;6971;50.028;9.258;2024-02-21T12:48:28;5.97;;;2.40;;
13799;SDS011;6971;50.028;9.258;2024-02-21T12:53:29;3.37;;;2.53;;
13799;SDS011;6971;50.028;9.258;2024-02-21T12:58:30;2.83;;;1.97;;
13799;SDS011;6971;50.028;9.258;2024-02-21T13:03:31;4.47;;;2.23;;
13799;SDS011;6971;50.028;9.258;2024-02-21T13:08:31;6.40;;;2.20;;
13799;SDS011;6971;50.028;9.258;2024-02-21T13:13:34;5.37;;;2.37;;
13799;SDS011;6971;50.028;9.258;2024-02-21T13:18:35;7.43;;;2.73;;
13799;SDS011;6971;50.028;9.258;2024-02-21T13:23:37;4.53;;;2.07;;
13799;SDS011;6971;50.028;9.258;2024-02-21T13:28:38;2.30;;;1.80;;
13799;SDS011;6971;50.028;9.258;2024-02-21T13:33:38;5.03;;;2.10;;
13799;SDS011;6971;50.028;9.258;2024-02-21T13:38:39;5.67;;;1.93;;
13799;SDS011;6971;50.028;9.258;2024-02-21T13:43:39;3.50;;;1.87;;
13799;SDS011;6971;50.028;9.258;2024-02-21T13:48:40;3.57;;;1.90;;
13799;SDS011;6971;50.028;9.258;2024-02-21T13:53:40;4.87;;;2.47;;
13799;SDS011;6971;50.028;9.258;2024-02-21T13:58:41;1.90;;;1.70;;
13799;SDS011;6971;50.028;9.258;2024-02-21T14:03:41;4.63;;;2.10;;
13799;SDS011;6971;50.028;9.258;2024-02-21T14:08:41;4.90;;;1.77;;
13799;SDS011;6971;50.028;9.258;2024-02-21T14:13:42;6.40;;;3.27;;
13799;SDS011;6971;50.028;9.258;2024-02-21T14:18:43;5.93;;;2.03;;
13799;SDS011;6971;50.028;9.258;2024-02-21T14:23:43;3.43;;;1.90;;
13799;SDS011;6971;50.028;9.258;2024-02-21T14:28:44;6.97;;;1.97;;
13799;SDS011;6971;50.028;9.258;2024-02-21T14:33:45;5.43;;;2.07;;
13799;SDS011;6971;50.028;9.258;2024-02-21T14:38:46;4.03;;;1.83;;
13799;SDS011;6971;50.028;9.258;2024-02-21T14:43:47;4.27;;;2.17;;
13799;SDS011;6971;50.028;9.258;2024-02-21T14:48:47;7.27;;;1.90;;
13799;SDS011;6971;50.028;9.258;2024-02-21T14:53:47;5.03;;;2.00;;
13799;SDS011;6971;50.028;9.258;2024-02-21T14:58:48;3.07;;;1.90;;
13799;SDS011;6971;50.028;9.258;2024-02-21T15:03:48;3.80;;;1.80;;
13799;SDS011;6971;50.028;9.258;2024-02-21T15:08:49;2.53;;;1.60;;
13799;SDS011;6971;50.028;9.258;2024-02-21T15:13:50;5.13;;;1.77;;
13799;SDS011;6971;50.028;9.258;2024-02-21T15:18:50;6.80;;;2.23;;
13799;SDS011;6971;50.028;9.258;2024-02-21T15:23:51;11.30;;;5.73;;
13799;SDS011;6971;50.028;9.258;2024-02-21T15:28:51;6.20;;;3.50;;
13799;SDS011;6971;50.028;9.258;2024-02-21T15:33:52;5.43;;;2.93;;
13799;SDS011;6971;50.028;9.258;2024-02-21T15:38:53;4.20;;;2.17;;
13799;SDS011;6971;50.028;9.258;2024-02-21T15:43:53;8.97;;;4.30;;
13799;SDS011;6971;50.028;9.258;2024-02-21T15:48:54;5.27;;;1.60;;
13799;SDS011;6971;50.028;9.258;2024-02-21T15:53:55;4.00;;;1.90;;
13799;SDS011;6971;50.028;9.258;2024-02-21T15:58:55;2.27;;;1.80;;
13799;SDS011;6971;50.028;9.258;2024-02-21T16:03:56;4.53;;;2.00;;
13799;SDS011;6971;50.028;9.258;2024-02-21T16:08:58;6.70;;;2.43;;
13799;SDS011;6971;50.028;9.258;2024-02-21T16:14:00;4.63;;;2.37;;
13799;SDS011;6971;50.028;9.258;2024-02-21T16:19:01;9.63;;;5.40;;
13799;SDS011;6971;50.028;9.258;2024-02-21T16:24:05;5.57;;;2.33;;
13799;SDS011;6971;50.028;9.258;2024-02-21T16:29:05;3.40;;;2.40;;
13799;SDS011;6971;50.028;9.258;2024-02-21T16:34:08;4.20;;;2.43;;
13799;SDS011;6971;50.028;9.258;2024-02-21T16:39:09;8.13;;;3.90;;
13799;SDS011;6971;50.028;9.258;2024-02-21T16:44:11;8.17;;;2.83;;
13799;SDS011;6971;50.028;9.258;2024-02-21T16:49:12;4.97;;;2.50;;
13799;SDS011;6971;50.028;9.258;2024-02-21T16:54:12;3.00;;;1.50;;
13799;SDS011;6971;50.028;9.258;2024-02-21T16:59:13;4.90;;;2.10;;
13799;SDS011;6971;50.028;9.258;2024-02-21T17:04:14;4.20;;;2.23;;
13799;SDS011;6971;50.028;9.258;2024-02-21T17:09:14;5.00;;;2.13;;
13799;SDS011;6971;50.028;9.258;2024-02-21T17:14:17;2.33;;;2.00;;
13799;SDS011;6971;50.028;9.258;2024-02-21T17:19:17;4.27;;;2.20;;
13799;SDS011;6971;50.028;9.258;2024-02-21T17:24:18;3.83;;;2.03;;
13799;SDS011;6971;50.028;9.258;2024-02-21T17:29:18;4.40;;;2.80;;
13799;SDS011;6971;50.028;9.258;2024-02-21T17:34:20;7.20;;;1.80;;
13799;SDS011;6971;50.028;9.258;2024-02-21T17:39:20;3.20;;;2.67;;
13799;SDS011;6971;50.028;9.258;2024-02-21T17:44:21;5.43;;;2.10;;
13799;SDS011;6971;50.028;9.258;2024-02-21T17:49:22;6.80;;;1.97;;
13799;SDS011;6971;50.028;9.258;2024-02-21T17:54:23;6.20;;;1.60;;
13799;SDS011;6971;50.028;9.258;2024-02-21T17:59:24;5.50;;;1.30;;
13799;SDS011;6971;50.028;9.258;2024-02-21T18:04:24;2.10;;;1.13;;
13799;SDS011;6971;50.028;9.258;2024-02-21T18:09:25;4.37;;;1.87;;
13799;SDS011;6971;50.028;9.258;2024-02-21T18:14:25;2.53;;;1.70;;
13799;SDS011;6971;50.028;9.258;2024-02-21T18:19:25;2.30;;;1.53;;
13799;SDS011;6971;50.028;9.258;2024-02-21T18:24:26;3.53;;;1.50;;
13799;SDS011;6971;50.028;9.258;2024-02-21T18:29:26;3.77;;;2.23;;
13799;SDS011;6971;50.028;9.258;2024-02-21T18:34:27;3.77;;;1.90;;
13799;SDS011;6971;50.028;9.258;2024-02-21T18:39:27;2.90;;;1.33;;
13799;SDS011;6971;50.028;9.258;2024-02-21T18:44:28;1.27;;;1.00;;
13799;SDS011;6971;50.028;9.258;2024-02-21T18:49:28;1.90;;;1.50;;
13799;SDS011;6971;50.028;9.258;2024-02-21T18:54:29;1.53;;;1.37;;
13799;SDS011;6971;50.028;9.258;2024-02-21T18:59:29;1.83;;;1.20;;
13799;SDS011;6971;50.028;9.258;2024-02-21T19:04:30;7.03;;;1.87;;
13799;SDS011;6971;50.028;9.258;2024-02-21T19:09:31;4.60;;;1.70;;
13799;SDS011;6971;50.028;9.258;2024-02-21T19:14:31;3.20;;;1.37;;
13799;SDS011;6971;50.028;9.258;2024-02-21T19:19:32;3.40;;;1.70;;
13799;SDS011;6971;50.028;9.258;2024-02-21T19:24:34;3.70;;;2.27;;
13799;SDS011;6971;50.028;9.258;2024-02-21T19:29:34;2.50;;;1.70;;
13799;SDS011;6971;50.028;9.258;2024-02-21T19:34:34;6.20;;;2.37;;
13799;SDS011;6971;50.028;9.258;2024-02-21T19:39:35;9.17;;;2.60;;
13799;SDS011;6971;50.028;9.258;2024-02-21T19:44:35;3.10;;;2.10;;
13799;SDS011;6971;50.028;9.258;2024-02-21T19:49:36;4.80;;;1.63;;
13799;SDS011;6971;50.028;9.258;2024-02-21T19:54:36;16.20;;;6.93;;
13799;SDS011;6971;50.028;9.258;2024-02-21T19:59:37;6.27;;;3.43;;
13799;SDS011;6971;50.028;9.258;2024-02-21T20:04:37;6.53;;;4.33;;
13799;SDS011;6971;50.028;9.258;2024-02-21T20:09:40;4.60;;;2.90;;
13799;SDS011;6971;50.028;9.258;2024-02-21T20:14:41;4.13;;;2.60;;
13799;SDS011;6971;50.028;9.258;2024-02-21T20:19:41;2.20;;;1.97;;
13799;SDS011;6971;50.028;9.258;2024-02-21T20:24:42;2.30;;;1.33;;
13799;SDS011;6971;50.028;9.258;2024-02-21T20:29:42;46.27;;;18.93;;
13799;SDS011;6971;50.028;9.258;2024-02-21T20:34:43;7.27;;;4.60;;
13799;SDS011;6971;50.028;9.258;2024-02-21T20:39:43;4.30;;;2.30;;
13799;SDS011;6971;50.028;9.258;2024-02-21T20:44:44;9.93;;;4.63;;
13799;SDS011;6971;50.028;9.258;2024-02-21T20:49:44;1.30;;;1.10;;
13799;SDS011;6971;50.028;9.258;2024-02-21T20:54:45;1.90;;;1.17;;
13799;SDS011;6971;50.028;9.258;2024-02-21T20:59:45;1.77;;;1.50;;
13799;SDS011;6971;50.028;9.258;2024-02-21T21:04:46;1.60;;;1.20;;
13799;SDS011;6971;50.028;9.258;2024-02-21T21:09:46;1.07;;;1.03;;
13799;SDS011;6971;50.028;9.258;2024-02-21T21:14:46;12.57;;;4.50;;
13799;SDS011;6971;50.028;9.258;2024-02-21T21:19:47;1.60;;;1.30;;
13799;SDS011;6971;50.028;9.258;2024-02-21T21:24:48;2.80;;;1.73;;
13799;SDS011;6971;50.028;9.258;2024-02-21T21:29:49;4.97;;;1.60;;
13799;SDS011;6971;50.028;9.258;2024-02-21T21:34:52;3.33;;;1.27;;
13799;SDS011;6971;50.028;9.258;2024-02-21T21:39:53;1.70;;;1.00;;
13799;SDS011;6971;50.028;9.258;2024-02-21T21:44:55;3.90;;;2.43;;
13799;SDS011;6971;50.028;9.258;2024-02-21T21:49:55;1.13;;;0.90;;
13799;SDS011;6971;50.028;9.258;2024-02-21T21:54:56;2.07;;;1.20;;
13799;SDS011;6971;50.028;9.258;2024-02-21T21:59:56;5.67;;;1.90;;
13799;SDS011;6971;50.028;9.258;2024-02-21T22:04:57;9.47;;;3.77;;
13799;SDS011;6971;50.028;9.258;2024-02-21T22:09:57;1.17;;;1.07;;
13799;SDS011;6971;50.028;9.258;2024-02-21T22:14:57;0.90;;;0.90;;
13799;SDS011;6971;50.028;9.258;2024-02-21T22:19:58;2.73;;;1.63;;
13799;SDS011;6971;50.028;9.258;2024-02-21T22:24:58;2.63;;;1.60;;
13799;SDS011;6971;50.028;9.258;2024-02-21T22:29:59;1.70;;;1.10;;
13799;SDS011;6971;50.028;9.258;2024-02-21T22:34:59;3.33;;;1.40;;
13799;SDS011;6971;50.028;9.258;2024-02-21T22:40:00;3.70;;;1.40;;
13799;SDS011;6971;50.028;9.258;2024-02-21T22:45:00;4.00;;;1.30;;
13799;SDS011;6971;50.028;9.258;2024-02-21T22:50:00;2.00;;;1.33;;
13799;SDS011;6971;50.028;9.258;2024-02-21T22:55:01;1.80;;;1.10;;
13799;SDS011;6971;50.028;9.258;2024-02-21T23:00:01;1.30;;;1.20;;
13799;SDS011;6971;50.028;9.258;2024-02-21T23:05:03;1.50;;;1.03;;
13799;SDS011;6971;50.028;9.258;2024-02-21T23:10:04;2.57;;;1.47;;
13799;SDS011;6971;50.028;9.258;2024-02-21T23:15:05;4.03;;;1.33;;
13799;SDS011;6971;50.028;9.258;2024-02-21T23:20:06;1.47;;;1.23;;
13799;SDS011;6971;50.028;9.258;2024-02-21T23:25:09;1.67;;;1.20;;
13799;SDS011;6971;50.028;9.258;2024-02-21T23:30:11;1.77;;;1.57;;
13799;SDS011;6971;50.028;9.258;2024-02-21T23:35:11;2.50;;;1.23;;
13799;SDS011;6971;50.028;9.258;2024-02-21T23:40:12;2.57;;;1.20;;
13799;SDS011;6971;50.028;9.258;2024-02-21T23:45:12;3.00;;;1.63;;
13799;SDS011;6971;50.028;9.258;2024-02-21T23:50:13;2.20;;;1.73;;
13799;SDS011;6971;50.028;9.258;2024-02-21T23:55:13;1.50;;;1.40;;
